Monatstabelle

Bitte in den Auwahlmenüs den gewünschte Zeiraum wählen und die Schaltfläche "Anfrage absenden" betätigen. Beginn der Aufzeichnung ist 2007 - Dezember. Vor diesem Zeitraum sind keine Daten verfügbar.

2021 - Mai

 

Datum Temperatur (°C) Luftdruck (hPa) Luftfeuchte (%) Regen
(l/m²)
Wind (km/h)
avg: min: max: avg: min: max: avg: min: max: avg: max:
01.05.2021 15,0 9,3 20,2 1004,8 1001,1 1008,2 76 54 88 4,0 4,2 12,9
02.05.2021 10,4 8,2 15,2 1008,3 995,7 1013,2 67 52 91 1,6 7,7 20,8
03.05.2021 9,6 5,2 15,7 1016,6 1013,1 1018,4 58 35 77 0,0 3,9 18,2
04.05.2021 14,3 4,6 20,8 1005,9 1002,6 1015,8 51 32 84 0,0 8,0 16,4
05.05.2021 10,6 7,6 23,3 1004,0 998,6 1008,1 64 34 82 3,7 7,7 23,3
06.05.2021 9,2 5,3 15,0 1007,1 1003,0 1010,9 66 45 74 0,0 10,5 17,4
07.05.2021 9,8 6,7 14,5 1009,1 1002,8 1015,4 64 53 78 0,1 9,8 22,0
08.05.2021 11,1 1,0 16,7 1016,1 1014,8 1018,5 56 33 83 0,0 4,6 13,4
09.05.2021 16,4 5,5 23,9 1012,6 1010,9 1015,0 52 36 81 0,0 4,1 19,6
10.05.2021 21,8 14,6 28,2 1008,6 1008,2 1010,3 45 34 55 0,0 2,9 22,7
11.05.2021 22,2 13,6 28,7 1005,7 1004,4 1008,4 44 30 65 0,0 8,2 18,3
12.05.2021 13,2 11,1 17,2 1003,9 1002,9 1004,9 81 57 86 5,2 2,1 10,1
13.05.2021 12,5 11,0 15,1 1000,7 999,4 1003,0 69 60 86 0,3 6,8 15,3
14.05.2021 13,8 10,7 19,7 1005,6 1001,6 1007,2 64 42 77 0,1 5,4 13,8
15.05.2021 12,6 10,2 16,7 1005,1 1002,2 1007,9 80 66 89 5,6 2,0 9,2
16.05.2021 14,7 9,6 20,9 1003,0 1000,9 1005,4 69 41 91 0,7 4,6 12,6
17.05.2021 11,6 10,4 13,6 1003,5 1000,1 1005,4 76 64 88 10,8 5,1 11,1
18.05.2021 13,6 9,9 18,2 1009,3 1005,4 1010,2 59 46 72 0,0 7,7 19,3
19.05.2021 11,3 8,6 15,9 1010,0 1008,8 1010,8 76 53 83 1,1 7,1 15,8
20.05.2021 11,7 7,3 17,2 1014,7 1010,6 1015,9 65 46 81 0,1 8,0 23,2
21.05.2021 15,0 4,6 22,3 1009,0 1006,2 1015,6 56 39 86 0,0 4,4 14,2
22.05.2021 11,9 7,8 14,9 1009,3 1004,9 1010,5 76 66 82 0,1 3,3 8,2
23.05.2021 10,4 6,0 13,6 1014,7 1009,6 1017,9 78 61 90 7,3 4,3 16,4
24.05.2021 10,8 3,6 15,6 1013,4 1010,4 1018,1 83 54 92 1,4 7,6 13,4
25.05.2021 10,4 4,6 13,1 1015,7 1009,4 1018,1 70 51 90 1,2 3,4 15,0
26.05.2021 14,3 2,5 20,3 1013,3 1010,8 1018,4 60 33 88 0,0 0,2 16,9
27.05.2021 11,2 8,2 16,8 1014,4 1012,4 1016,0 80 62 88 9,7 2,6 15,3
28.05.2021 12,9 5,9 18,4 1016,5 1015,7 1017,5 74 55 94 0,0 2,7 14,2
29.05.2021 11,9 7,2 16,4 1017,6 1016,3 1018,3 76 52 86 1,6 3,3 20,8
30.05.2021 10,6 5,1 14,9 1018,8 1017,2 1019,6 78 56 93 1,8 6,5 18,8
31.05.2021 12,2 4,8 17,8 1016,2 1015,3 1019,2 72 47 94 0,3 2,8 15,9
avg. 12,8 1010,1 67   ---
  Summe Regen: 56,9  
 
Min-Datum 08.05.2021 02.05.2021 11.05.2021 --- ---
Min-Zeit 05:00 04:20 13:50 --- ---
Minimum 1,0 995,7 30 --- ---
 

Max-Datum

11.05.2021 30.05.2021 28.05.2021 17.05.2021 05.05.2021
Max-Zeit 14:56 22:20 07:16 07:14 13:02
Maximum 28,7 1019,6 94 10,8 23,3
 

 

  Letztes Jahr
gleiches Monat
Eistage max < 0°C 0 0
Frosttage min < 0°C 0 0
Sommertage max >=25°C 2 5
Heiße Tage max >=30°C 0 0

 

<<< nach oben >>>